Time;durP1;ratioP1;P1;durP2;ratioP2;P2;SDS_P1;SDS_P2;PMS_P1;PMS_P2;Temp;Humidity;BMP_temperature;BMP_pressure;BME280_temperature;BME280_humidity;BME280_pressure;Samples;Min_cycle;Max_cycle;Signal;HPM_P1;HPM_P2
2021/03/13 00:00:51;;;;;;;55.20;22.35;;;;;;;4.71;77.47;101502.13;1723839;83;21400;-75
2021/03/13 00:03:24;;;;;;;39.65;21.75;;;;;;;4.69;77.47;101495.45;1723861;83;21212;-83
2021/03/13 00:05:56;;;;;;;37.70;19.13;;;;;;;4.66;77.44;101501.87;1723950;82;21525;-75
2021/03/13 00:08:29;;;;;;;30.88;17.70;;;;;;;4.65;77.50;101495.52;1724228;83;21898;-76
2021/03/13 00:11:01;;;;;;;35.93;19.10;;;;;;;4.63;77.52;101492.13;1724064;83;21204;-74
2021/03/13 00:13:34;;;;;;;39.95;19.60;;;;;;;4.65;77.54;101490.56;1723965;83;21247;-77
2021/03/13 00:16:07;;;;;;;32.30;17.82;;;;;;;4.64;77.53;101497.95;1724209;83;21406;-75
2021/03/13 00:18:41;;;;;;;42.27;20.85;;;;;;;4.65;77.52;101500.19;1723966;83;21406;-74
2021/03/13 00:21:14;;;;;;;48.10;20.05;;;;;;;4.63;77.54;101496.77;1723987;83;21338;-75
2021/03/13 00:23:48;;;;;;;45.43;19.52;;;;;;;4.64;77.50;101506.20;1723421;82;21355;-75
2021/03/13 00:26:21;;;;;;;38.50;18.70;;;;;;;4.65;77.53;101512.56;1724051;82;21712;-76
2021/03/13 00:28:53;;;;;;;44.10;21.23;;;;;;;4.67;77.51;101520.07;1723938;83;21192;-74
2021/03/13 00:31:26;;;;;;;48.58;20.20;;;;;;;4.69;77.45;101513.83;1724043;83;21405;-73
2021/03/13 00:33:59;;;;;;;37.17;19.23;;;;;;;4.68;77.44;101517.64;1724189;83;21736;-75
2021/03/13 00:36:32;;;;;;;25.00;14.93;;;;;;;4.67;77.40;101512.69;1723167;82;21203;-77
2021/03/13 00:39:06;;;;;;;31.17;17.45;;;;;;;4.70;77.43;101525.19;1723585;83;21339;-76
2021/03/13 00:41:43;;;;;;;32.60;16.67;;;;;;;4.68;77.44;101520.39;1722943;83;21289;-73
2021/03/13 00:44:16;;;;;;;28.73;16.37;;;;;;;4.68;77.54;101516.27;1724001;83;21340;-74
2021/03/13 00:46:49;;;;;;;28.87;14.73;;;;;;;4.68;77.57;101508.02;1724124;83;21352;-75
2021/03/13 00:49:22;;;;;;;30.97;14.83;;;;;;;4.68;77.65;101499.77;1724247;83;21738;-75
2021/03/13 00:51:54;;;;;;;27.73;13.75;;;;;;;4.67;77.73;101496.70;1723933;83;21351;-75
2021/03/13 00:54:27;;;;;;;24.73;14.47;;;;;;;4.66;77.74;101487.62;1723614;82;21728;-75
2021/03/13 00:57:00;;;;;;;36.53;16.07;;;;;;;4.64;77.79;101492.45;1745540;82;21712;-79
2021/03/13 00:59:32;;;;;;;28.15;14.50;;;;;;;4.60;77.82;101496.67;1745125;82;21417;-74
2021/03/13 01:02:05;;;;;;;31.97;16.33;;;;;;;4.58;77.85;101502.05;1723921;83;21171;-76
2021/03/13 01:04:37;;;;;;;25.10;14.40;;;;;;;4.56;77.89;101500.00;1724442;83;21214;-72
2021/03/13 01:07:11;;;;;;;27.22;13.38;;;;;;;4.56;77.91;101500.00;1723412;83;21574;-75
2021/03/13 01:09:45;;;;;;;25.50;14.73;;;;;;;4.53;77.92;101497.67;1718036;83;21348;-74
2021/03/13 01:12:18;;;;;;;28.02;15.55;;;;;;;4.49;77.94;101499.12;1724046;83;21273;-74
2021/03/13 01:14:53;;;;;;;28.97;14.73;;;;;;;4.43;77.95;101498.03;1723927;82;21878;-74
2021/03/13 01:17:25;;;;;;;;;;;;;;;4.34;78.07;101497.84;1726413;83;21338;-74
2021/03/13 01:19:58;;;;;;;34.83;15.80;;;;;;;4.29;78.16;101502.26;1723932;83;20287;-72
2021/03/13 01:22:33;;;;;;;29.17;14.90;;;;;;;4.26;78.28;101497.15;1723678;82;21349;-73
2021/03/13 01:25:07;;;;;;;30.30;15.53;;;;;;;4.26;78.38;101501.27;1723973;83;21847;-73
2021/03/13 01:27:40;;;;;;;31.57;17.03;;;;;;;4.27;78.39;101498.33;1723772;83;21247;-73
2021/03/13 01:30:19;;;;;;;40.23;19.97;;;;;;;4.17;78.44;101493.70;1715976;83;21358;-74
2021/03/13 01:32:53;;;;;;;44.53;19.20;;;;;;;4.17;78.44;101493.70;1697536;83;22282;-73
2021/03/13 01:35:26;;;;;;;47.90;19.23;;;;;;;4.10;78.57;101490.05;1718528;83;21242;-73
2021/03/13 01:38:05;;;;;;;34.37;17.73;;;;;;;4.05;78.68;101488.97;1676534;82;21244;-74
2021/03/13 01:40:39;;;;;;;40.80;19.75;;;;;;;4.02;78.83;101490.72;1726564;81;21202;-75
2021/03/13 01:43:13;;;;;;;38.03;18.87;;;;;;;4.01;78.92;101501.38;1726559;83;21347;-74
2021/03/13 01:45:46;;;;;;;42.90;19.62;;;;;;;4.02;78.95;101503.94;1726336;83;21197;-73
2021/03/13 01:48:19;;;;;;;32.95;16.15;;;;;;;4.00;78.95;101502.44;1725545;82;21356;-73
2021/03/13 01:50:51;;;;;;;38.02;18.75;;;;;;;3.97;78.99;101515.20;1726541;81;22117;-75
2021/03/13 01:53:24;;;;;;;24.92;15.88;;;;;;;3.94;79.02;101515.08;1726525;83;21217;-74
2021/03/13 01:55:57;;;;;;;35.43;16.07;;;;;;;3.93;79.06;101521.63;1726505;82;21201;-76
2021/03/13 01:58:30;;;;;;;37.10;16.90;;;;;;;3.91;79.15;101523.70;1726603;82;21233;-74
2021/03/13 02:01:08;;;;;;;33.97;16.70;;;;;;;3.87;79.16;101522.92;1726061;82;21943;-75
2021/03/13 02:03:43;;;;;;;36.07;16.63;;;;;;;3.80;79.23;101526.96;1726876;82;21893;-74
2021/03/13 02:06:17;;;;;;;27.43;13.97;;;;;;;3.75;79.31;101522.61;1726578;83;21194;-72
2021/03/13 02:09:05;;;;;;;32.50;16.63;;;;;;;3.74;79.37;101520.05;1726510;82;21210;-73
2021/03/13 02:11:50;;;;;;;36.70;16.23;;;;;;;3.72;79.45;101526.27;1726677;82;21210;-74
2021/03/13 02:14:32;;;;;;;31.87;17.83;;;;;;;3.70;79.49;101526.97;1683035;82;21352;-79
2021/03/13 02:17:41;;;;;;;34.37;17.60;;;;;;;3.66;79.59;101524.31;1726564;82;21392;-73
2021/03/13 02:20:50;;;;;;;39.63;19.00;;;;;;;3.66;79.71;101531.17;1725919;82;21367;-83
2021/03/13 02:23:23;;;;;;;38.47;17.33;;;;;;;3.69;79.74;101541.23;1726630;82;21194;-73
2021/03/13 02:26:24;;;;;;;29.40;15.53;;;;;;;3.73;79.62;101548.55;1726593;83;21241;-72
2021/03/13 02:29:20;;;;;;;29.77;15.73;;;;;;;3.71;79.54;101548.74;1725837;83;21273;-74
2021/03/13 02:31:57;;;;;;;35.63;18.40;;;;;;;3.66;79.53;101558.63;1717229;82;21368;-74
2021/03/13 02:34:33;;;;;;;39.13;19.10;;;;;;;3.61;79.53;101548.74;1715911;83;21290;-72
2021/03/13 02:37:10;;;;;;;38.63;18.63;;;;;;;3.63;79.56;101551.63;1716264;82;21726;-73
2021/03/13 02:39:47;;;;;;;36.57;18.20;;;;;;;3.64;79.43;101535.47;1715707;82;21214;-74
2021/03/13 02:42:20;;;;;;;39.70;20.07;;;;;;;3.66;79.46;101532.54;1715827;82;22141;-74
2021/03/13 02:44:53;;;;;;;33.60;17.23;;;;;;;3.73;79.44;101517.81;1716473;82;21711;-74
2021/03/13 02:47:28;;;;;;;42.87;20.67;;;;;;;3.83;79.36;101527.95;1716144;82;21728;-74
2021/03/13 02:50:03;;;;;;;40.10;19.73;;;;;;;3.84;79.11;101535.69;1715403;82;21203;-74
2021/03/13 02:52:37;;;;;;;42.30;20.07;;;;;;;3.88;79.16;101536.97;1715564;82;21289;-74
2021/03/13 02:55:14;;;;;;;35.80;17.00;;;;;;;3.92;79.00;101541.87;1694654;83;21386;-73
2021/03/13 02:57:49;;;;;;;38.90;19.30;;;;;;;3.91;78.69;101548.41;1716112;83;21288;-73
2021/03/13 03:00:24;;;;;;;35.75;19.00;;;;;;;3.77;78.51;101548.47;1716264;83;21231;-73
2021/03/13 03:02:58;;;;;;;36.50;19.83;;;;;;;3.70;78.71;101561.28;1715958;82;21213;-77
2021/03/13 03:05:51;;;;;;;41.40;21.00;;;;;;;3.71;78.85;101550.62;1712572;82;21219;-75
2021/03/13 03:08:28;;;;;;;36.93;18.73;;;;;;;3.78;79.06;101551.03;1674976;84;21359;-75
2021/03/13 03:11:01;;;;;;;38.50;22.00;;;;;;;3.81;78.71;101547.91;1669621;84;21920;-75
2021/03/13 03:13:36;;;;;;;33.33;18.53;;;;;;;3.72;78.62;101554.55;1669521;84;21219;-75
2021/03/13 03:16:10;;;;;;;30.87;18.70;;;;;;;3.68;78.63;101555.15;1669765;84;21264;-74
2021/03/13 03:18:43;;;;;;;29.07;18.17;;;;;;;3.58;78.59;101558.21;1669496;84;21758;-83
2021/03/13 03:21:16;;;;;;;33.87;18.97;;;;;;;3.51;78.67;101565.52;1669508;86;21336;-74
2021/03/13 03:23:49;;;;;;;35.48;18.45;;;;;;;3.41;78.83;101564.97;1697375;83;21689;-81
2021/03/13 03:26:22;;;;;;;40.65;21.52;;;;;;;3.37;79.00;101573.79;1703101;79;21783;-76
2021/03/13 03:28:56;;;;;;;42.53;22.30;;;;;;;3.33;79.16;101577.95;1782618;80;21193;-80
2021/03/13 03:31:36;;;;;;;42.00;23.93;;;;;;;3.29;79.34;101581.59;1778753;80;21264;-75
2021/03/13 03:34:10;;;;;;;41.77;22.53;;;;;;;3.30;79.51;101577.80;1786748;80;21331;-75
2021/03/13 03:36:43;;;;;;;42.48;22.80;;;;;;;3.37;79.58;101580.64;1787030;80;21199;-75
2021/03/13 03:39:17;;;;;;;42.30;24.77;;;;;;;3.41;79.64;101584.17;1786713;80;21321;-74
2021/03/13 03:41:52;;;;;;;46.10;24.87;;;;;;;3.45;79.69;101575.91;1786779;80;21182;-74
2021/03/13 03:44:26;;;;;;;45.67;24.70;;;;;;;3.57;79.72;101584.47;1786855;80;21810;-74
2021/03/13 03:47:02;;;;;;;45.27;24.57;;;;;;;3.64;79.59;101585.39;1782953;80;21331;-75
2021/03/13 03:49:36;;;;;;;41.53;23.17;;;;;;;3.72;79.46;101579.81;1786895;80;21209;-74
2021/03/13 03:52:17;;;;;;;46.13;24.93;;;;;;;3.79;79.40;101573.31;1782192;80;21368;-76
2021/03/13 03:54:50;;;;;;;45.77;25.27;;;;;;;3.88;79.24;101565.30;1786786;80;21324;-81
2021/03/13 03:57:30;;;;;;;48.37;24.00;;;;;;;3.96;79.09;101565.66;1786839;80;21360;-84
2021/03/13 04:00:04;;;;;;;41.07;23.43;;;;;;;3.99;78.89;101559.80;1786643;80;21229;-73
2021/03/13 04:02:40;;;;;;;50.97;25.70;;;;;;;3.97;78.72;101550.91;1754593;80;21944;-75
2021/03/13 04:05:15;;;;;;;48.45;27.32;;;;;;;3.95;78.67;101543.38;1787015;80;21233;-76
2021/03/13 04:07:47;;;;;;;55.77;25.40;;;;;;;3.99;78.72;101545.55;1786915;80;22004;-79
2021/03/13 04:10:20;;;;;;;48.57;25.47;;;;;;;4.02;78.58;101534.16;1786978;80;21336;-74
2021/03/13 04:12:53;;;;;;;50.67;26.73;;;;;;;4.04;78.28;101521.06;1786872;80;21324;-75
2021/03/13 04:15:26;;;;;;;53.15;27.60;;;;;;;4.04;78.23;101518.86;1786781;80;21217;-74
2021/03/13 04:17:59;;;;;;;53.13;26.25;;;;;;;4.05;78.12;101516.44;1785356;80;21319;-83
2021/03/13 04:20:32;;;;;;;58.83;27.85;;;;;;;4.09;78.04;101517.75;1782772;80;21340;-76
2021/03/13 04:26:34;;;;;;;56.07;29.13;;;;;;;4.08;77.62;101522.89;1753415;81;21419;-75
2021/03/13 04:29:07;;;;;;;58.90;27.10;;;;;;;4.02;77.41;101519.56;1760087;81;21355;-76
2021/03/13 04:31:40;;;;;;;52.35;27.00;;;;;;;3.94;77.41;101526.58;1775979;80;21630;-74
2021/03/13 04:34:13;;;;;;;56.40;26.83;;;;;;;3.97;77.68;101535.81;1755167;82;21321;-75
2021/03/13 04:36:47;;;;;;;57.20;27.62;;;;;;;4.02;77.78;101538.28;1792342;80;22057;-77
2021/03/13 04:39:19;;;;;;;51.25;29.07;;;;;;;4.00;77.32;101549.13;1792622;80;21383;-75
2021/03/13 04:41:53;;;;;;;62.17;31.80;;;;;;;3.85;77.23;101540.12;1792458;80;21324;-74
2021/03/13 04:44:27;;;;;;;57.07;29.83;;;;;;;3.78;77.56;101546.91;1792393;80;21233;-75
2021/03/13 04:47:00;;;;;;;60.33;29.52;;;;;;;3.77;77.63;101543.84;1788357;80;21309;-75
2021/03/13 04:49:37;;;;;;;64.77;29.83;;;;;;;3.77;77.74;101538.86;1787439;80;21300;-75
2021/03/13 04:52:09;;;;;;;59.97;29.43;;;;;;;3.82;77.94;101537.25;1755061;82;21178;-76
2021/03/13 04:54:43;;;;;;;52.33;27.93;;;;;;;3.83;77.70;101540.31;1785908;80;21676;-75
2021/03/13 04:57:17;;;;;;;54.17;28.00;;;;;;;3.76;77.62;101544.03;1765764;81;21332;-76
2021/03/13 04:59:51;;;;;;;61.10;31.50;;;;;;;3.67;77.69;101535.61;1764210;80;21193;-75
2021/03/13 05:02:24;;;;;;;61.67;30.57;;;;;;;3.64;78.10;101529.98;1764674;81;21447;-76
2021/03/13 05:04:57;;;;;;;59.83;31.23;;;;;;;3.68;78.27;101522.20;1766418;79;21331;-75
2021/03/13 05:07:30;;;;;;;63.77;31.37;;;;;;;3.71;78.27;101535.52;1784563;80;21198;-87
2021/03/13 05:10:04;;;;;;;68.78;31.10;;;;;;;3.75;78.28;101533.59;1773996;80;21821;-87
2021/03/13 05:12:37;;;;;;;63.77;32.53;;;;;;;3.85;78.34;101534.64;1780528;80;21335;-79
2021/03/13 05:15:12;;;;;;;87.40;38.40;;;;;;;3.86;78.18;101537.70;1780627;80;21857;-86
2021/03/13 05:17:45;;;;;;;82.47;39.30;;;;;;;3.78;78.11;101548.83;1760812;81;21681;-74
2021/03/13 05:20:18;;;;;;;78.93;37.87;;;;;;;3.75;78.40;101544.58;1786398;80;21367;-76
2021/03/13 05:22:50;;;;;;;81.03;37.73;;;;;;;3.84;78.60;101552.16;1769517;80;21221;-72
2021/03/13 05:25:35;;;;;;;78.37;39.92;;;;;;;3.93;78.58;101551.83;1786218;80;21388;-82
2021/03/13 05:28:13;;;;;;;79.73;38.93;;;;;;;4.05;78.61;101548.89;1765424;81;21328;-79
2021/03/13 05:30:44;;;;;;;;;;;;;;;4.16;78.36;101555.73;1788747;80;21175;-79
2021/03/13 05:33:21;;;;;;;82.05;39.53;;;;;;;4.22;78.26;101554.41;1785941;80;20642;-84
2021/03/13 05:35:54;;;;;;;92.87;42.93;;;;;;;4.29;78.29;101557.22;1771304;79;21367;-83
2021/03/13 05:38:28;;;;;;;81.27;40.70;;;;;;;4.40;78.36;101548.44;1786071;80;21347;-81
2021/03/13 05:41:06;;;;;;;83.30;40.50;;;;;;;4.50;78.15;101547.03;1784967;80;21372;-80
2021/03/13 05:43:39;;;;;;;93.45;43.05;;;;;;;4.61;78.01;101549.23;1785372;80;21406;-79
2021/03/13 05:46:18;;;;;;;94.62;47.03;;;;;;;4.79;78.09;101550.08;1766574;80;21198;-79
2021/03/13 05:48:56;;;;;;;120.60;50.43;;;;;;;5.02;77.97;101550.65;1768820;80;21175;-79
2021/03/13 05:51:29;;;;;;;96.70;47.75;;;;;;;5.28;77.76;101551.63;1773007;79;21277;-77
2021/03/13 06:04:10;;;;;;;94.50;44.25;;;;;;;6.32;75.40;101567.07;1641498;81;21241;-79
2021/03/13 06:10:14;;;;;;;81.17;42.45;;;;;;;6.97;74.00;101584.11;1597666;85;21243;-77
2021/03/13 06:13:13;;;;;;;77.70;39.78;;;;;;;7.35;73.24;101593.66;1730912;83;21814;-80
2021/03/13 06:15:50;;;;;;;67.10;37.78;;;;;;;7.70;72.53;101592.77;1710259;83;21250;-76
2021/03/13 06:18:24;;;;;;;85.62;43.55;;;;;;;8.10;71.97;101599.80;1738357;81;21426;-76
2021/03/13 06:21:09;;;;;;;84.17;41.10;;;;;;;8.46;70.76;101611.08;1696941;83;21357;-84
2021/03/13 06:23:47;;;;;;;83.25;41.40;;;;;;;8.68;69.61;101615.14;1645549;85;21387;-77
2021/03/13 06:26:21;;;;;;;77.25;39.95;;;;;;;8.97;69.52;101620.00;1708834;82;21381;-80
2021/03/13 06:29:04;;;;;;;57.58;32.63;;;;;;;9.33;68.83;101633.92;1723902;83;21246;-84
2021/03/13 06:31:35;;;;;;;62.33;37.80;;;;;;;9.69;67.23;101636.70;1663653;83;21193;-76
2021/03/13 06:40:44;;;;;;;47.13;27.67;;;;;;;10.31;61.65;101627.47;1679800;84;21877;-81
2021/03/13 06:55:57;;;;;;;45.17;26.15;;;;;;;11.15;58.10;101628.54;1727879;78;21796;-77
2021/03/13 06:58:40;;;;;;;52.78;29.23;;;;;;;11.09;57.86;101623.41;1710622;84;21357;-78
2021/03/13 07:01:17;;;;;;;49.08;28.85;;;;;;;11.07;57.30;101626.95;1709863;84;21199;-82
2021/03/13 07:03:51;;;;;;;48.70;29.20;;;;;;;11.00;56.56;101620.67;1713150;84;21226;-80
2021/03/13 07:06:24;;;;;;;51.50;29.18;;;;;;;10.94;56.99;101622.20;1711184;84;21912;-84
2021/03/13 07:08:57;;;;;;;45.50;27.37;;;;;;;10.98;57.17;101620.08;1713106;84;21289;-75
2021/03/13 07:11:44;;;;;;;43.48;25.85;;;;;;;11.02;56.54;101628.22;1708580;84;21362;-78
2021/03/13 07:14:11;;;;;;;56.50;31.20;;;;;;;10.94;56.29;101630.53;1649365;84;21407;-77
2021/03/13 07:16:46;;;;;;;;;;;;;;;10.76;56.35;101632.01;1714173;84;21394;-78
2021/03/13 07:23:17;;;;;;;44.13;24.82;;;;;;;10.38;56.58;101638.46;1594784;89;21689;-82
2021/03/13 07:25:56;;;;;;;43.38;25.85;;;;;;;9.98;57.21;101648.41;1606469;89;21756;-78
2021/03/13 07:28:32;;;;;;;46.85;27.02;;;;;;;9.65;57.24;101637.71;1607549;88;21228;-81
2021/03/13 07:31:31;;;;;;;45.73;26.90;;;;;;;9.47;58.56;101636.84;1609277;89;21293;-74
2021/03/13 07:37:33;;;;;;;50.12;28.15;;;;;;;9.43;59.58;101630.09;1594128;86;21238;-78
2021/03/13 07:43:45;;;;;;;44.60;27.17;;;;;;;9.32;59.37;101651.10;1595565;88;21170;-79
2021/03/13 07:46:19;;;;;;;46.48;27.65;;;;;;;9.35;59.58;101647.86;1607102;89;21222;-81
2021/03/13 07:52:19;;;;;;;45.52;26.73;;;;;;;9.36;59.69;101648.72;1602819;88;21333;-79
2021/03/13 08:10:09;;;;;;;51.60;26.02;;;;;;;9.31;60.58;101638.30;1572199;88;21158;-88
2021/03/13 08:19:45;;;;;;;52.08;26.52;;;;;;;9.41;59.43;101640.53;1610131;84;21248;-80
2021/03/13 08:22:39;;;;;;;44.15;25.45;;;;;;;9.46;59.86;101636.02;1715422;83;21320;-74
2021/03/13 08:25:27;;;;;;;47.23;25.27;;;;;;;9.47;59.50;101629.39;1623415;87;21465;-73
2021/03/13 08:28:01;;;;;;;47.03;22.75;;;;;;;9.40;59.21;101630.01;1619993;86;21375;-76
2021/03/13 08:30:35;;;;;;;49.50;25.75;;;;;;;9.33;59.32;101632.00;1650395;84;21301;-76
2021/03/13 08:33:19;;;;;;;47.85;25.30;;;;;;;9.26;59.04;101631.75;1660631;85;21214;-73
2021/03/13 08:35:53;;;;;;;40.98;23.12;;;;;;;9.26;59.32;101634.53;1685779;85;21377;-75
2021/03/13 08:38:53;;;;;;;39.27;24.10;;;;;;;9.32;59.10;101630.84;1664963;85;21171;-72
2021/03/13 08:42:14;;;;;;;54.80;25.88;;;;;;;9.35;58.68;101635.38;1683024;83;21887;-74
2021/03/13 08:44:46;;;;;;;47.50;25.45;;;;;;;9.37;59.01;101631.84;1620465;84;21225;-75
2021/03/13 08:47:20;;;;;;;50.80;24.75;;;;;;;9.47;58.99;101628.00;1668684;85;21874;-77
2021/03/13 08:50:01;;;;;;;44.25;24.23;;;;;;;9.51;59.06;101624.23;1665099;85;21403;-74
2021/03/13 08:52:38;;;;;;;35.15;22.17;;;;;;;9.55;59.64;101619.92;1672682;85;21199;-76
2021/03/13 08:55:17;;;;;;;33.80;20.80;;;;;;;9.61;59.10;101629.53;1689825;84;21166;-74
2021/03/13 08:57:54;;;;;;;37.65;21.02;;;;;;;9.65;58.72;101638.23;1717466;83;21342;-72
2021/03/13 09:00:27;;;;;;;43.52;23.30;;;;;;;9.66;59.03;101644.95;1651595;85;21209;-82
2021/03/13 09:03:03;;;;;;;37.55;19.75;;;;;;;9.87;61.89;101639.47;1721357;82;21195;-75
2021/03/13 09:05:37;;;;;;;35.23;21.07;;;;;;;10.23;64.31;101633.36;1665542;85;21360;-72
2021/03/13 09:08:17;;;;;;;45.58;21.02;;;;;;;10.57;63.93;101623.42;1665390;85;21331;-75
2021/03/13 09:10:51;;;;;;;32.35;19.10;;;;;;;10.77;61.17;101627.58;1668414;83;21918;-75
2021/03/13 09:13:33;;;;;;;30.37;19.10;;;;;;;10.81;58.54;101632.11;1676634;84;21831;-75
2021/03/13 09:16:20;;;;;;;40.70;22.55;;;;;;;10.72;57.75;101630.26;1697898;83;22071;-78
2021/03/13 09:19:02;;;;;;;34.45;21.55;;;;;;;10.57;57.43;101635.92;1741715;80;21227;-77
2021/03/13 10:08:24;;;;;;;45.17;23.30;;;;;;;8.79;63.66;101641.58;1614975;84;21651;-78
2021/03/13 11:21:32;;;;;;;34.18;21.85;;;;;;;9.26;67.76;101639.55;1717731;82;21223;-73
2021/03/13 11:24:05;;;;;;;61.33;27.27;;;;;;;9.61;69.21;101629.53;1717171;82;21389;-75
2021/03/13 11:26:38;;;;;;;63.58;30.43;;;;;;;9.85;67.33;101634.14;1716514;82;21397;-74
2021/03/13 11:32:35;;;;;;;41.48;24.70;;;;;;;10.35;68.61;101629.23;1685066;84;21352;-82
2021/03/13 11:35:09;;;;;;;43.33;26.73;;;;;;;10.62;66.84;101631.90;1702647;84;21344;-73
2021/03/13 11:37:43;;;;;;;38.63;24.60;;;;;;;10.77;66.66;101635.92;1698242;84;21396;-76
2021/03/13 11:40:16;;;;;;;41.42;24.32;;;;;;;11.00;66.19;101637.34;1688571;84;21210;-78
2021/03/13 11:42:57;;;;;;;46.10;26.40;;;;;;;11.23;65.37;101646.23;1688328;84;21209;-76
2021/03/13 11:45:24;;;;;;;50.05;29.82;;;;;;;11.45;64.42;101639.85;1684669;85;21296;-74
2021/03/13 11:47:57;;;;;;;43.90;26.15;;;;;;;11.54;63.16;101637.52;1690429;84;21846;-75
2021/03/13 11:50:32;;;;;;;53.73;25.95;;;;;;;11.66;63.11;101636.98;1692222;84;21201;-74
2021/03/13 11:57:09;;;;;;;37.40;24.27;;;;;;;11.69;62.02;101626.78;1693105;84;21262;-79
2021/03/13 11:59:43;;;;;;;43.87;25.70;;;;;;;11.27;59.86;101630.78;1703998;83;21193;-77
2021/03/13 12:02:19;;;;;;;46.42;23.77;;;;;;;10.80;60.50;101628.52;1701846;83;21796;-77
2021/03/13 12:05:00;;;;;;;39.80;25.08;;;;;;;10.40;61.36;101617.71;1723005;83;21252;-83
2021/03/13 12:07:54;;;;;;;43.52;26.10;;;;;;;10.07;62.36;101624.82;1663173;86;21340;-76
2021/03/13 12:10:27;;;;;;;41.33;24.02;;;;;;;9.81;63.39;101619.59;1622344;88;21259;-71
2021/03/13 12:13:00;;;;;;;;;;;;;;;9.59;64.30;101619.23;1624695;87;21211;-74
2021/03/13 12:15:33;;;;;;;46.13;25.45;;;;;;;9.45;65.03;101616.84;1616131;88;20204;-74
2021/03/13 12:18:06;;;;;;;44.65;27.05;;;;;;;9.33;65.64;101619.53;1621540;88;21361;-72
2021/03/13 12:20:39;;;;;;;42.33;25.48;;;;;;;9.22;65.89;101617.52;1620989;88;21217;-72
2021/03/13 12:25:46;;;;;;;44.25;26.60;;;;;;;8.95;66.28;101620.25;1626538;87;21414;-72
2021/03/13 12:28:19;;;;;;;45.43;27.63;;;;;;;8.85;66.54;101625.97;1620986;88;21380;-73
2021/03/13 12:30:52;;;;;;;44.00;24.20;;;;;;;8.73;66.90;101622.23;1619285;88;21214;-73
2021/03/13 12:33:25;;;;;;;47.08;25.85;;;;;;;8.66;67.17;101623.69;1615525;88;21222;-76
2021/03/13 12:35:59;;;;;;;43.60;26.15;;;;;;;8.64;67.49;101627.20;1613250;89;21202;-74
2021/03/13 12:38:32;;;;;;;52.10;27.75;;;;;;;8.61;67.66;101613.83;1620374;87;21775;-73
2021/03/13 12:41:07;;;;;;;51.00;28.55;;;;;;;8.58;67.82;101616.20;1628202;86;21290;-74
2021/03/13 12:43:41;;;;;;;54.40;28.87;;;;;;;8.58;68.06;101617.03;1607651;88;21728;-75
2021/03/13 12:46:18;;;;;;;49.85;29.07;;;;;;;8.61;68.34;101611.06;1593297;90;21377;-76
2021/03/13 12:48:51;;;;;;;51.18;29.07;;;;;;;8.62;68.43;101615.52;1616094;87;21366;-75
2021/03/13 12:51:23;;;;;;;53.68;28.05;;;;;;;8.62;68.68;101619.67;1611915;88;21746;-75
2021/03/13 12:53:56;;;;;;;48.98;29.15;;;;;;;8.61;68.89;101612.97;1602093;89;21353;-76
2021/03/13 12:56:33;;;;;;;47.90;28.00;;;;;;;8.58;68.80;101612.87;1602170;88;21222;-75
2021/03/13 12:59:07;;;;;;;50.28;27.73;;;;;;;8.54;68.81;101611.66;1601589;88;21237;-72
2021/03/13 13:01:40;;;;;;;47.78;26.57;;;;;;;8.52;68.89;101615.16;1602579;88;21477;-72
2021/03/13 13:04:13;;;;;;;44.13;25.95;;;;;;;8.53;69.18;101615.50;1602532;88;21854;-73
2021/03/13 13:06:47;;;;;;;43.65;25.50;;;;;;;8.50;68.93;101622.84;1602187;89;21250;-74
2021/03/13 13:09:21;;;;;;;43.23;23.00;;;;;;;8.43;68.88;101619.28;1603406;86;21735;-74
2021/03/13 13:11:56;;;;;;;38.30;23.77;;;;;;;8.38;68.95;101620.48;1606656;87;21850;-75
2021/03/13 13:14:30;;;;;;;44.42;25.85;;;;;;;8.36;69.25;101620.39;1626246;87;21873;-77
2021/03/13 13:17:04;;;;;;;41.35;25.40;;;;;;;8.32;69.53;101618.61;1604053;87;21201;-75
2021/03/13 13:19:48;;;;;;;44.20;27.25;;;;;;;8.31;69.55;101612.77;1612214;86;21213;-75
2021/03/13 13:22:25;;;;;;;46.35;26.77;;;;;;;8.32;69.63;101615.84;1640668;86;21351;-74
2021/03/13 13:24:58;;;;;;;49.15;27.90;;;;;;;8.29;69.70;101616.83;1667819;84;21353;-75
2021/03/13 13:27:31;;;;;;;45.92;24.87;;;;;;;8.27;69.84;101615.66;1631596;86;21355;-77
2021/03/13 13:30:06;;;;;;;49.30;28.30;;;;;;;8.30;70.03;101615.23;1643773;86;21366;-75
2021/03/13 13:32:39;;;;;;;42.67;25.43;;;;;;;8.31;70.25;101617.45;1647395;86;21362;-75
2021/03/13 13:35:15;;;;;;;48.13;26.25;;;;;;;8.32;70.39;101620.00;1647154;86;21224;-73
2021/03/13 13:37:50;;;;;;;40.35;24.70;;;;;;;8.34;70.38;101617.84;1670315;85;21235;-76
2021/03/13 13:40:25;;;;;;;46.77;28.40;;;;;;;8.36;70.42;101616.24;1666904;84;21397;-73
2021/03/13 13:43:01;;;;;;;52.20;29.50;;;;;;;8.34;70.53;101616.46;1672627;86;21212;-75
2021/03/13 13:45:34;;;;;;;48.15;27.60;;;;;;;8.36;70.69;101621.78;1671108;85;21378;-74
2021/03/13 13:48:08;;;;;;;49.27;27.45;;;;;;;8.41;70.82;101621.97;1659689;85;21221;-73
2021/03/13 13:50:43;;;;;;;51.45;30.60;;;;;;;8.43;70.96;101619.81;1677275;84;21342;-76
2021/03/13 13:53:16;;;;;;;51.95;29.32;;;;;;;8.43;71.22;101614.27;1681987;84;21345;-77
2021/03/13 13:55:50;;;;;;;45.25;26.80;;;;;;;8.43;71.51;101621.19;1673420;85;21308;-73
2021/03/13 13:58:22;;;;;;;60.75;31.12;;;;;;;8.43;71.60;101622.05;1652658;85;21743;-75
2021/03/13 14:00:55;;;;;;;70.67;39.25;;;;;;;8.42;71.70;101614.83;1669598;85;21436;-74
2021/03/13 14:03:30;;;;;;;63.58;36.95;;;;;;;8.42;71.95;101617.59;1679838;85;21362;-76
2021/03/13 14:06:04;;;;;;;65.12;38.90;;;;;;;8.49;72.22;101617.00;1666120;85;21214;-78
2021/03/13 14:08:36;;;;;;;58.70;35.17;;;;;;;8.55;72.25;101616.63;1656484;85;21345;-73
2021/03/13 14:11:09;;;;;;;60.30;35.60;;;;;;;8.56;72.28;101615.03;1662950;85;21628;-74
2021/03/13 14:13:43;;;;;;;57.38;33.90;;;;;;;8.56;72.46;101610.05;1662739;85;21747;-78
2021/03/13 14:16:16;;;;;;;66.07;36.88;;;;;;;8.57;72.56;101613.13;1674013;85;21342;-75
2021/03/13 14:18:50;;;;;;;62.35;35.90;;;;;;;8.59;72.54;101609.06;1664943;85;21345;-78
2021/03/13 14:21:24;;;;;;;66.67;37.67;;;;;;;8.57;72.60;101605.66;1670996;85;21420;-77
2021/03/13 14:23:59;;;;;;;60.73;34.67;;;;;;;8.58;72.78;101599.59;1672226;85;21885;-72
2021/03/13 14:26:31;;;;;;;56.47;33.40;;;;;;;8.56;72.93;101598.42;1674101;84;21293;-76
2021/03/13 14:29:04;;;;;;;49.10;28.87;;;;;;;8.48;73.07;101591.80;1685371;85;21351;-73
2021/03/13 14:31:36;;;;;;;48.45;27.55;;;;;;;8.41;73.13;101587.38;1708451;81;21218;-78
2021/03/13 14:34:11;;;;;;;49.95;25.85;;;;;;;8.33;73.32;101590.42;1681263;85;21373;-76
2021/03/13 14:36:50;;;;;;;44.35;26.17;;;;;;;8.29;73.70;101590.03;1714429;83;21276;-75
2021/03/13 14:39:22;;;;;;;54.95;32.03;;;;;;;8.28;74.21;101602.17;1662086;85;21841;-74
2021/03/13 14:41:56;;;;;;;47.20;28.38;;;;;;;8.33;74.58;101595.41;1707323;83;21343;-73
2021/03/13 14:44:30;;;;;;;;;;;;;;;8.44;74.73;101596.08;1680943;85;21213;-72
2021/03/13 14:47:02;;;;;;;48.83;29.23;;;;;;;8.48;74.66;101586.78;1678366;84;20246;-73
2021/03/13 14:49:46;;;;;;;49.90;28.97;;;;;;;8.47;74.67;101581.80;1703251;83;21372;-74
2021/03/13 15:02:20;;;;;;;47.45;26.95;;;;;;;8.46;74.61;101577.31;1621709;86;21225;-74
2021/03/13 15:04:58;;;;;;;43.45;26.62;;;;;;;8.43;74.41;101576.92;1629191;87;21342;-74
2021/03/13 15:07:49;;;;;;;41.77;26.10;;;;;;;8.34;74.49;101570.81;1620036;86;21362;-73
2021/03/13 15:10:27;;;;;;;39.65;25.05;;;;;;;8.26;74.59;101560.03;1621558;86;21372;-74
2021/03/13 15:13:00;;;;;;;50.88;30.02;;;;;;;8.20;74.72;101554.56;1616722;88;21361;-70
2021/03/13 15:18:28;;;;;;;59.85;34.35;;;;;;;8.27;74.99;101558.95;1586939;90;21215;-73
2021/03/13 15:21:01;;;;;;;46.77;28.62;;;;;;;8.36;74.83;101565.06;1602878;88;21356;-75
2021/03/13 15:23:35;;;;;;;51.77;30.32;;;;;;;8.38;74.67;101563.77;1663632;85;21376;-70
2021/03/13 15:26:08;;;;;;;61.60;36.25;;;;;;;8.31;74.51;101558.83;1622472;87;21735;-76
2021/03/13 15:28:41;;;;;;;53.05;30.40;;;;;;;8.21;74.52;101549.34;1662411;83;21471;-74